Time,TemperatureF,DewpointF,PressureIn,WindDirection,WindDirectionDegrees,WindSpeedMPH,WindSpeedGustMPH,Humidity,HourlyPrecipIn,Conditions,Clouds,dailyrainin,SolarRadiationWatts/m^2,SoftwareType,DateUTC
2013-04-11 00:00:00,39.2,37.9,29.45,NNE,15,0.0,0.0,95,0.00,,,0.14,0,WeatherCatV1.11B39,2013-04-11 04:00:00,
2013-04-11 00:01:00,39.2,37.9,29.45,NNE,15,0.0,0.0,95,0.00,,,0.00,0,WeatherCatV1.11B39,2013-04-11 04:01:00,
2013-04-11 00:05:00,39.2,38.2,29.45,NNE,15,0.0,0.0,96,0.00,,,0.00,0,WeatherCatV1.11B39,2013-04-11 04:05:00,
2013-04-11 00:06:00,39.2,38.2,29.45,NNE,15,0.0,0.0,96,0.00,,,0.00,0,WeatherCatV1.11B39,2013-04-11 04:06:00,
2013-04-11 00:11:00,39.3,38.3,29.45,NNE,15,0.0,0.0,96,0.00,,,0.00,0,WeatherCatV1.11B39,2013-04-11 04:11:00,
2013-04-11 00:16:00,39.3,38.3,29.44,NNE,15,0.0,0.0,96,0.00,,,0.00,0,WeatherCatV1.11B39,2013-04-11 04:16:00,
2013-04-11 00:21:00,39.3,38.3,29.44,NNE,15,0.0,0.0,96,0.00,,,0.00,0,WeatherCatV1.11B39,2013-04-11 04:21:00,
2013-04-11 00:26:00,39.3,38.5,29.44,NNE,15,0.0,0.0,97,0.00,,,0.00,0,WeatherCatV1.11B39,2013-04-11 04:26:00,
2013-04-11 00:31:00,39.3,38.5,29.45,NNE,15,0.0,0.0,97,0.00,,,0.00,0,WeatherCatV1.11B39,2013-04-11 04:31:00,
2013-04-11 00:36:00,39.4,38.6,29.45,NNE,15,0.0,0.0,97,0.00,,,0.00,0,WeatherCatV1.11B39,2013-04-11 04:36:00,
2013-04-11 00:41:00,39.4,38.6,29.45,NNE,15,0.0,0.0,97,0.00,,,0.00,0,WeatherCatV1.11B39,2013-04-11 04:41:00,
2013-04-11 00:46:00,39.3,38.5,29.45,NNE,15,0.0,0.0,97,0.00,,,0.00,0,WeatherCatV1.11B39,2013-04-11 04:46:00,
2013-04-11 00:51:00,39.3,38.5,29.44,NNE,15,0.0,0.0,97,0.00,,,0.00,0,WeatherCatV1.11B39,2013-04-11 04:51:00,
2013-04-11 00:56:00,39.3,38.3,29.44,NNE,15,0.0,0.0,96,0.00,,,0.00,0,WeatherCatV1.11B39,2013-04-11 04:56:00,
2013-04-11 01:01:00,39.2,38.2,29.44,NNE,15,0.0,0.0,96,0.00,,,0.00,0,WeatherCatV1.11B39,2013-04-11 05:01:00,
2013-04-11 01:06:00,39.1,38.1,29.44,NNE,15,0.0,0.0,96,0.00,,,0.00,0,WeatherCatV1.11B39,2013-04-11 05:06:00,
2013-04-11 01:11:00,39.1,38.1,29.44,NNE,15,0.0,0.0,96,0.00,,,0.00,0,WeatherCatV1.11B39,2013-04-11 05:11:00,
2013-04-11 01:16:00,38.8,37.8,29.44,NNE,15,0.0,0.0,96,0.00,,,0.00,0,WeatherCatV1.11B39,2013-04-11 05:16:00,
2013-04-11 01:21:00,38.6,37.6,29.44,NNE,15,0.0,0.0,96,0.00,,,0.00,0,WeatherCatV1.11B39,2013-04-11 05:21:00,
2013-04-11 01:26:00,38.5,37.5,29.44,NNE,15,0.0,0.0,96,0.00,,,0.00,0,WeatherCatV1.11B39,2013-04-11 05:26:00,
2013-04-11 01:31:00,38.3,37.3,29.44,NNE,15,0.0,0.0,96,0.00,,,0.00,0,WeatherCatV1.11B39,2013-04-11 05:31:00,
2013-04-11 01:36:00,38.2,37.2,29.45,NNE,15,0.0,0.0,96,0.00,,,0.00,0,WeatherCatV1.11B39,2013-04-11 05:36:00,
2013-04-11 01:41:00,38.2,37.2,29.44,NNE,15,0.0,0.0,96,0.00,,,0.00,0,WeatherCatV1.11B39,2013-04-11 05:41:00,
2013-04-11 01:46:00,38.1,37.1,29.44,NNE,15,0.0,0.0,96,0.00,,,0.00,0,WeatherCatV1.11B39,2013-04-11 05:46:00,
2013-04-11 01:51:00,38.1,37.1,29.44,NNE,15,0.0,0.0,96,0.00,,,0.00,0,WeatherCatV1.11B39,2013-04-11 05:51:00,
2013-04-11 01:56:00,38.1,37.1,29.44,NNE,15,0.0,0.0,96,0.00,,,0.00,0,WeatherCatV1.11B39,2013-04-11 05:56:00,
2013-04-11 02:01:00,38.2,37.2,29.43,NNE,15,0.0,0.0,96,0.00,,,0.00,0,WeatherCatV1.11B39,2013-04-11 06:01:00,
2013-04-11 02:06:00,38.2,37.4,29.43,NNE,15,0.0,0.0,97,0.00,,,0.00,0,WeatherCatV1.11B39,2013-04-11 06:06:00,
2013-04-11 02:11:00,38.2,37.4,29.43,NNE,15,0.0,0.0,97,0.00,,,0.00,0,WeatherCatV1.11B39,2013-04-11 06:11:00,
2013-04-11 02:16:00,38.3,37.5,29.42,NNE,15,0.0,0.0,97,0.00,,,0.00,0,WeatherCatV1.11B39,2013-04-11 06:16:00,
2013-04-11 02:21:00,38.3,37.5,29.42,NNE,15,0.0,0.0,97,0.00,,,0.00,0,WeatherCatV1.11B39,2013-04-11 06:21:00,
2013-04-11 02:26:00,38.4,37.6,29.42,NNE,15,0.0,0.0,97,0.00,,,0.00,0,WeatherCatV1.11B39,2013-04-11 06:26:00,
2013-04-11 02:31:00,38.6,37.8,29.42,NNE,15,0.0,0.0,97,0.00,,,0.00,0,WeatherCatV1.11B39,2013-04-11 06:31:00,
2013-04-11 02:36:00,38.7,37.9,29.43,NNE,15,0.0,0.0,97,0.00,,,0.00,0,WeatherCatV1.11B39,2013-04-11 06:36:00,
2013-04-11 02:41:00,38.7,37.9,29.42,NNE,15,0.0,0.0,97,0.00,,,0.00,0,WeatherCatV1.11B39,2013-04-11 06:41:00,
2013-04-11 02:46:00,38.7,37.9,29.42,NNE,15,0.0,0.0,97,0.00,,,0.00,0,WeatherCatV1.11B39,2013-04-11 06:46:00,
2013-04-11 02:51:00,38.7,37.9,29.42,NNE,15,0.0,0.0,97,0.00,,,0.00,0,WeatherCatV1.11B39,2013-04-11 06:51:00,
2013-04-11 02:56:00,38.6,37.8,29.42,NNE,15,0.0,0.0,97,0.00,,,0.00,0,WeatherCatV1.11B39,2013-04-11 06:56:00,
2013-04-11 03:01:00,38.5,37.7,29.42,NNE,15,0.0,0.0,97,0.00,,,0.00,0,WeatherCatV1.11B39,2013-04-11 07:01:00,
2013-04-11 03:06:00,38.4,37.6,29.41,NNE,15,0.0,0.0,97,0.00,,,0.00,0,WeatherCatV1.11B39,2013-04-11 07:06:00,
2013-04-11 03:11:00,38.3,37.5,29.41,NNE,15,0.0,0.0,97,0.00,,,0.00,0,WeatherCatV1.11B39,2013-04-11 07:11:00,
2013-04-11 03:16:00,38.2,37.4,29.42,NNE,15,0.0,0.0,97,0.00,,,0.00,0,WeatherCatV1.11B39,2013-04-11 07:16:00,
2013-04-11 03:21:00,38.2,37.4,29.40,NNE,15,0.0,0.0,97,0.00,,,0.00,0,WeatherCatV1.11B39,2013-04-11 07:21:00,
2013-04-11 03:26:00,38.1,37.3,29.40,NNE,15,0.0,0.0,97,0.00,,,0.00,0,WeatherCatV1.11B39,2013-04-11 07:26:00,
2013-04-11 03:31:00,38.1,37.3,29.40,NNE,15,0.0,0.0,97,0.00,,,0.00,0,WeatherCatV1.11B39,2013-04-11 07:31:00,
2013-04-11 03:36:00,38.1,37.3,29.40,NNE,15,0.0,0.0,97,0.00,,,0.00,0,WeatherCatV1.11B39,2013-04-11 07:36:00,
2013-04-11 03:41:00,38.2,37.4,29.40,NNE,15,0.0,0.0,97,0.00,,,0.00,0,WeatherCatV1.11B39,2013-04-11 07:41:00,
2013-04-11 03:46:00,38.3,37.5,29.40,NNE,15,0.0,0.0,97,0.00,,,0.00,0,WeatherCatV1.11B39,2013-04-11 07:46:00,
2013-04-11 03:51:00,38.3,37.5,29.40,NNE,15,0.0,0.0,97,0.00,,,0.00,0,WeatherCatV1.11B39,2013-04-11 07:51:00,
2013-04-11 03:56:00,38.3,37.5,29.40,NNE,15,0.0,0.0,97,0.00,,,0.00,0,WeatherCatV1.11B39,2013-04-11 07:56:00,
2013-04-11 04:01:00,38.3,37.5,29.40,NNE,15,0.0,0.0,97,0.00,,,0.00,0,WeatherCatV1.11B39,2013-04-11 08:01:00,
2013-04-11 04:02:00,38.3,37.5,29.40,NNE,15,0.0,0.0,97,0.00,,,0.00,0,WeatherCatV1.11B39,2013-04-11 08:02:00,
2013-04-11 04:06:00,38.2,37.4,29.41,NNE,15,0.0,0.0,97,0.00,,,0.00,0,WeatherCatV1.11B39,2013-04-11 08:06:00,
2013-04-11 04:11:00,38.1,37.3,29.40,NNE,15,0.0,0.0,97,0.00,,,0.00,0,WeatherCatV1.11B39,2013-04-11 08:11:00,
2013-04-11 04:16:00,38.0,37.2,29.41,NNE,15,0.0,0.0,97,0.00,,,0.00,0,WeatherCatV1.11B39,2013-04-11 08:16:00,
2013-04-11 04:21:00,37.9,37.1,29.41,NNE,15,0.0,0.0,97,0.00,,,0.00,0,WeatherCatV1.11B39,2013-04-11 08:21:00,
2013-04-11 04:26:00,37.8,37.0,29.42,NNE,15,0.0,0.0,97,0.00,,,0.00,0,WeatherCatV1.11B39,2013-04-11 08:26:00,
2013-04-11 04:31:00,37.7,36.9,29.42,NNE,15,0.0,0.0,97,0.00,,,0.00,0,WeatherCatV1.11B39,2013-04-11 08:31:00,
2013-04-11 04:36:00,37.7,36.9,29.42,NNE,15,0.0,0.0,97,0.00,,,0.00,0,WeatherCatV1.11B39,2013-04-11 08:36:00,
2013-04-11 04:41:00,37.6,36.8,29.42,NNE,15,0.0,0.0,97,0.00,,,0.00,0,WeatherCatV1.11B39,2013-04-11 08:41:00,
2013-04-11 04:46:00,37.6,36.8,29.42,NNE,15,0.0,0.0,97,0.00,,,0.00,0,WeatherCatV1.11B39,2013-04-11 08:46:00,
2013-04-11 04:51:00,37.5,36.7,29.43,NNE,15,0.0,0.0,97,0.00,,,0.00,0,WeatherCatV1.11B39,2013-04-11 08:51:00,
2013-04-11 04:56:00,37.4,36.6,29.42,NNE,15,0.0,0.0,97,0.00,,,0.00,0,WeatherCatV1.11B39,2013-04-11 08:56:00,
2013-04-11 05:01:00,37.4,36.6,29.42,NNE,15,0.0,0.0,97,0.00,,,0.00,0,WeatherCatV1.11B39,2013-04-11 09:01:00,
2013-04-11 05:06:00,37.3,36.5,29.42,NNE,15,0.0,0.0,97,0.00,,,0.00,0,WeatherCatV1.11B39,2013-04-11 09:06:00,
2013-04-11 05:11:00,37.3,36.5,29.42,NNE,15,0.0,0.0,97,0.00,,,0.00,0,WeatherCatV1.11B39,2013-04-11 09:11:00,
2013-04-11 05:16:00,37.2,36.4,29.43,NNE,15,0.0,0.0,97,0.00,,,0.00,0,WeatherCatV1.11B39,2013-04-11 09:16:00,
2013-04-11 05:21:00,37.2,36.4,29.43,NNE,15,0.0,0.0,97,0.00,,,0.00,0,WeatherCatV1.11B39,2013-04-11 09:21:00,
2013-04-11 05:26:00,37.1,36.3,29.43,NNE,15,0.0,0.0,97,0.00,,,0.00,0,WeatherCatV1.11B39,2013-04-11 09:26:00,
2013-04-11 05:31:00,37.0,36.2,29.43,NNE,15,0.0,0.0,97,0.00,,,0.00,0,WeatherCatV1.11B39,2013-04-11 09:31:00,
2013-04-11 05:36:00,37.0,36.2,29.43,NNE,15,0.0,0.0,97,0.00,,,0.00,0,WeatherCatV1.11B39,2013-04-11 09:36:00,
2013-04-11 05:41:00,36.8,35.8,29.43,NNE,15,0.0,0.0,96,0.00,,,0.00,0,WeatherCatV1.11B39,2013-04-11 09:41:00,
2013-04-11 05:46:00,36.6,35.6,29.43,NNE,15,0.0,0.0,96,0.00,,,0.00,0,WeatherCatV1.11B39,2013-04-11 09:46:00,
2013-04-11 05:51:00,36.4,35.4,29.44,NNE,15,0.0,0.0,96,0.00,,,0.00,0,WeatherCatV1.11B39,2013-04-11 09:51:00,
2013-04-11 05:56:00,36.2,35.2,29.44,NNE,15,0.0,0.0,96,0.00,,,0.00,0,WeatherCatV1.11B39,2013-04-11 09:56:00,
2013-04-11 06:01:00,36.0,35.0,29.45,NNE,15,0.0,0.0,96,0.00,,,0.00,0,WeatherCatV1.11B39,2013-04-11 10:01:00,
2013-04-11 06:06:00,35.7,34.7,29.45,NNE,15,0.0,0.0,96,0.00,,,0.00,0,WeatherCatV1.11B39,2013-04-11 10:06:00,
2013-04-11 06:11:00,35.4,34.1,29.45,NNE,15,0.0,0.0,95,0.00,,,0.00,0,WeatherCatV1.11B39,2013-04-11 10:11:00,
2013-04-11 06:16:00,35.1,33.8,29.45,NNE,15,0.0,0.0,95,0.00,,,0.00,5,WeatherCatV1.11B39,2013-04-11 10:16:00,
2013-04-11 06:21:00,34.9,33.6,29.45,NNE,15,0.0,0.0,95,0.00,,,0.00,9,WeatherCatV1.11B39,2013-04-11 10:21:00,
2013-04-11 06:26:00,34.8,33.5,29.46,NNE,15,0.0,0.0,95,0.00,,,0.00,14,WeatherCatV1.11B39,2013-04-11 10:26:00,
2013-04-11 06:31:00,34.6,33.3,29.46,NNE,15,0.0,0.0,95,0.00,,,0.00,18,WeatherCatV1.11B39,2013-04-11 10:31:00,
2013-04-11 06:36:00,34.5,33.5,29.46,NNE,15,0.0,0.0,96,0.00,,,0.00,25,WeatherCatV1.11B39,2013-04-11 10:36:00,
2013-04-11 06:41:00,34.5,33.5,29.46,NNE,15,0.0,1.0,96,0.00,,,0.00,32,WeatherCatV1.11B39,2013-04-11 10:41:00,
2013-04-11 06:46:00,34.6,33.6,29.47,NNE,15,0.0,0.0,96,0.00,,,0.00,30,WeatherCatV1.11B39,2013-04-11 10:46:00,
2013-04-11 06:51:00,34.7,33.9,29.47,NNE,15,0.0,0.0,97,0.00,,,0.00,30,WeatherCatV1.11B39,2013-04-11 10:51:00,
2013-04-11 06:56:00,34.8,34.0,29.48,NNE,15,0.0,0.0,97,0.00,,,0.00,35,WeatherCatV1.11B39,2013-04-11 10:56:00,
2013-04-11 07:01:00,34.9,34.1,29.48,NNE,15,0.0,0.0,97,0.00,,,0.00,32,WeatherCatV1.11B39,2013-04-11 11:01:00,
2013-04-11 07:06:00,35.1,34.3,29.49,NNE,15,0.0,0.0,97,0.00,,,0.00,35,WeatherCatV1.11B39,2013-04-11 11:06:00,
2013-04-11 07:11:00,35.2,34.4,29.49,NNE,15,0.0,0.0,97,0.00,,,0.00,39,WeatherCatV1.11B39,2013-04-11 11:11:00,
2013-04-11 07:16:00,35.3,34.5,29.49,NNE,15,0.0,0.0,97,0.00,,,0.00,42,WeatherCatV1.11B39,2013-04-11 11:16:00,
2013-04-11 07:21:00,35.4,34.6,29.49,North,0,0.0,2.0,97,0.00,,,0.00,44,WeatherCatV1.11B39,2013-04-11 11:21:00,
2013-04-11 07:26:00,35.5,34.7,29.49,North,0,0.0,0.0,97,0.00,,,0.00,47,WeatherCatV1.11B39,2013-04-11 11:26:00,
2013-04-11 07:31:00,35.6,34.8,29.49,North,0,0.0,0.0,97,0.00,,,0.00,49,WeatherCatV1.11B39,2013-04-11 11:31:00,
2013-04-11 07:36:00,35.7,34.9,29.48,North,0,0.0,0.0,97,0.00,,,0.00,49,WeatherCatV1.11B39,2013-04-11 11:36:00,
2013-04-11 07:41:00,35.7,34.7,29.49,North,0,9.0,9.0,96,0.00,,,0.00,53,WeatherCatV1.11B39,2013-04-11 11:41:00,
2013-04-11 07:46:00,36.1,33.2,29.49,North,5,8.0,11.0,89,0.00,,,0.00,62,WeatherCatV1.11B39,2013-04-11 11:46:00,
2013-04-11 07:51:00,36.6,32.2,29.49,North,0,7.0,8.0,84,0.00,,,0.00,62,WeatherCatV1.11B39,2013-04-11 11:51:00,
2013-04-11 07:56:00,37.0,31.1,29.49,North,5,14.0,14.0,79,0.00,,,0.00,60,WeatherCatV1.11B39,2013-04-11 11:56:00,
2013-04-11 08:01:00,37.5,30.6,29.49,North,0,7.0,13.0,76,0.00,,,0.00,60,WeatherCatV1.11B39,2013-04-11 12:01:00,
2013-04-11 08:06:00,37.8,29.9,29.49,North,355,11.0,15.0,73,0.00,,,0.00,74,WeatherCatV1.11B39,2013-04-11 12:06:00,
2013-04-11 08:11:00,37.9,29.4,29.50,North,5,13.0,17.0,71,0.00,,,0.00,67,WeatherCatV1.11B39,2013-04-11 12:11:00,
2013-04-11 08:16:00,37.9,29.4,29.50,North,0,12.0,15.0,71,0.00,,,0.00,72,WeatherCatV1.11B39,2013-04-11 12:16:00,
2013-04-11 08:21:00,38.0,28.7,29.50,NNW,342,4.0,16.0,69,0.00,,,0.00,70,WeatherCatV1.11B39,2013-04-11 12:21:00,
2013-04-11 08:26:00,38.2,28.2,29.51,NNE,19,12.0,16.0,67,0.00,,,0.00,79,WeatherCatV1.11B39,2013-04-11 12:26:00,
2013-04-11 08:31:00,38.4,28.0,29.51,North,5,14.0,15.0,66,0.00,,,0.00,84,WeatherCatV1.11B39,2013-04-11 12:31:00,
2013-04-11 08:36:00,38.6,28.2,29.51,North,5,17.0,17.0,66,0.00,,,0.00,98,WeatherCatV1.11B39,2013-04-11 12:36:00,
2013-04-11 08:41:00,38.7,27.6,29.51,NNW,347,14.0,17.0,64,0.00,,,0.00,104,WeatherCatV1.11B39,2013-04-11 12:41:00,
2013-04-11 08:46:00,38.7,28.0,29.51,North,9,6.0,10.0,65,0.00,,,0.00,118,WeatherCatV1.11B39,2013-04-11 12:46:00,
2013-04-11 08:51:00,38.7,27.6,29.51,North,355,10.0,13.0,64,0.00,,,0.00,111,WeatherCatV1.11B39,2013-04-11 12:51:00,
2013-04-11 08:56:00,38.7,26.4,29.51,NNE,12,7.0,13.0,61,0.00,,,0.00,98,WeatherCatV1.11B39,2013-04-11 12:56:00,
2013-04-11 09:01:00,38.8,26.9,29.51,NNE,15,14.0,15.0,62,0.00,,,0.00,113,WeatherCatV1.11B39,2013-04-11 13:01:00,
2013-04-11 09:06:00,38.8,26.9,29.51,North,0,10.0,13.0,62,0.00,,,0.00,98,WeatherCatV1.11B39,2013-04-11 13:06:00,
2013-04-11 09:11:00,38.8,27.3,29.51,North,355,5.0,11.0,63,0.00,,,0.00,105,WeatherCatV1.11B39,2013-04-11 13:11:00,
2013-04-11 09:16:00,38.9,25.8,29.51,North,5,2.0,9.0,59,0.00,,,0.00,171,WeatherCatV1.11B39,2013-04-11 13:16:00,
2013-04-11 09:21:00,39.0,27.1,29.51,North,355,3.0,3.0,62,0.00,,,0.00,132,WeatherCatV1.11B39,2013-04-11 13:21:00,
2013-04-11 09:26:00,39.3,27.8,29.51,North,355,1.0,5.0,63,0.00,,,0.00,139,WeatherCatV1.11B39,2013-04-11 13:26:00,
2013-04-11 09:32:00,39.5,27.6,29.51,NE,35,10.0,10.0,62,0.00,,,0.00,98,WeatherCatV1.11B39,2013-04-11 13:32:00,
2013-04-11 09:37:00,39.8,26.2,29.51,North,0,4.0,5.0,58,0.00,,,0.00,251,WeatherCatV1.11B39,2013-04-11 13:37:00,
2013-04-11 09:42:00,40.2,25.8,29.51,North,355,9.0,9.0,56,0.00,,,0.00,309,WeatherCatV1.11B39,2013-04-11 13:42:00,
2013-04-11 09:46:00,40.7,25.8,29.51,North,9,8.0,11.0,55,0.00,,,0.00,262,WeatherCatV1.11B39,2013-04-11 13:46:00,
2013-04-11 09:51:00,41.0,26.1,29.51,North,5,3.0,11.0,55,0.00,,,0.00,265,WeatherCatV1.11B39,2013-04-11 13:51:00,
2013-04-11 09:56:00,41.4,26.5,29.51,North,351,5.0,13.0,55,0.00,,,0.00,250,WeatherCatV1.11B39,2013-04-11 13:56:00,
2013-04-11 10:01:00,41.6,27.1,29.51,North,355,6.0,7.0,56,0.00,,,0.00,309,WeatherCatV1.11B39,2013-04-11 14:01:00,
2013-04-11 10:06:00,41.6,25.8,29.51,North,355,12.0,13.0,53,0.00,,,0.00,394,WeatherCatV1.11B39,2013-04-11 14:06:00,
2013-04-11 10:11:00,41.6,25.8,29.51,North,355,7.0,13.0,53,0.00,,,0.00,432,WeatherCatV1.11B39,2013-04-11 14:11:00,
2013-04-11 10:16:00,41.7,26.7,29.51,North,355,7.0,9.0,55,0.00,,,0.00,257,WeatherCatV1.11B39,2013-04-11 14:16:00,
2013-04-11 10:21:00,41.8,24.5,29.51,North,0,8.0,10.0,50,0.00,,,0.00,178,WeatherCatV1.11B39,2013-04-11 14:21:00,
2013-04-11 10:26:00,41.8,25.5,29.51,North,5,5.0,11.0,52,0.00,,,0.00,227,WeatherCatV1.11B39,2013-04-11 14:26:00,
2013-04-11 10:31:00,41.7,25.4,29.51,North,0,7.0,11.0,52,0.00,,,0.00,153,WeatherCatV1.11B39,2013-04-11 14:31:00,
2013-04-11 10:36:00,41.8,25.0,29.51,NNW,341,6.0,9.0,51,0.00,,,0.00,475,WeatherCatV1.11B39,2013-04-11 14:36:00,
2013-04-11 10:41:00,42.2,25.4,29.51,North,5,0.0,9.0,51,0.00,,,0.00,200,WeatherCatV1.11B39,2013-04-11 14:41:00,
2013-04-11 10:46:00,42.5,24.2,29.52,North,355,11.0,12.0,48,0.00,,,0.00,374,WeatherCatV1.11B39,2013-04-11 14:46:00,
2013-04-11 10:51:00,42.7,23.9,29.52,North,355,6.0,7.0,47,0.00,,,0.00,480,WeatherCatV1.11B39,2013-04-11 14:51:00,
2013-04-11 10:56:00,43.1,25.3,29.52,North,355,1.0,9.0,49,0.00,,,0.00,733,WeatherCatV1.11B39,2013-04-11 14:56:00,
2013-04-11 11:01:00,43.4,24.0,29.52,North,355,4.0,9.0,46,0.00,,,0.00,118,WeatherCatV1.11B39,2013-04-11 15:01:00,
2013-04-11 11:03:00,43.4,24.0,29.52,North,350,12.0,12.0,46,0.00,,,0.00,134,WeatherCatV1.11B39,2013-04-11 15:03:00,
2013-04-11 11:08:00,43.8,23.3,29.52,North,355,4.0,10.0,44,0.00,,,0.00,295,WeatherCatV1.11B39,2013-04-11 15:08:00,
2013-04-11 11:11:00,43.9,23.9,29.52,North,349,10.0,18.0,45,0.00,,,0.00,517,WeatherCatV1.11B39,2013-04-11 15:11:00,
2013-04-11 11:16:00,44.1,24.7,29.52,NNW,348,12.0,12.0,46,0.00,,,0.00,327,WeatherCatV1.11B39,2013-04-11 15:16:00,
2013-04-11 11:21:00,44.1,24.7,29.52,NNE,32,6.0,7.0,46,0.00,,,0.00,239,WeatherCatV1.11B39,2013-04-11 15:21:00,
2013-04-11 11:27:00,44.0,25.1,29.52,North,0,9.0,13.0,47,0.00,,,0.00,239,WeatherCatV1.11B39,2013-04-11 15:27:00,
2013-04-11 11:32:00,44.0,23.5,29.53,North,0,9.0,9.0,44,0.00,,,0.00,225,WeatherCatV1.11B39,2013-04-11 15:32:00,
2013-04-11 11:37:00,44.0,24.6,29.52,North,355,4.0,6.0,46,0.00,,,0.00,223,WeatherCatV1.11B39,2013-04-11 15:37:00,
2013-04-11 11:42:00,44.0,26.1,29.53,NNE,13,3.0,7.0,49,0.00,,,0.00,225,WeatherCatV1.11B39,2013-04-11 15:42:00,
2013-04-11 11:47:00,44.2,23.7,29.52,North,0,0.0,2.0,44,0.00,,,0.00,223,WeatherCatV1.11B39,2013-04-11 15:47:00,
2013-04-11 11:51:00,44.6,24.0,29.53,North,11,4.0,6.0,44,0.00,,,0.00,232,WeatherCatV1.11B39,2013-04-11 15:51:00,
2013-04-11 11:56:00,44.8,25.8,29.53,North,5,1.0,4.0,47,0.00,,,0.00,295,WeatherCatV1.11B39,2013-04-11 15:56:00,
2013-04-11 12:01:00,45.0,22.7,29.53,North,355,4.0,5.0,41,0.00,,,0.00,246,WeatherCatV1.11B39,2013-04-11 16:01:00,
2013-04-11 12:06:00,45.0,23.3,29.54,North,0,2.0,11.0,42,0.00,,,0.00,260,WeatherCatV1.11B39,2013-04-11 16:06:00,
2013-04-11 12:11:00,45.0,22.1,29.53,North,355,4.0,7.0,40,0.00,,,0.00,257,WeatherCatV1.11B39,2013-04-11 16:11:00,
2013-04-11 12:17:00,45.0,23.9,29.54,North,355,5.0,7.0,43,0.00,,,0.00,232,WeatherCatV1.11B39,2013-04-11 16:17:00,
2013-04-11 12:22:00,44.9,22.6,29.54,North,9,7.0,13.0,41,0.00,,,0.00,211,WeatherCatV1.11B39,2013-04-11 16:22:00,
2013-04-11 12:27:00,44.6,21.8,29.54,North,0,9.0,13.0,40,0.00,,,0.00,213,WeatherCatV1.11B39,2013-04-11 16:27:00,
2013-04-11 12:32:00,44.4,21.6,29.55,North,5,6.0,7.0,40,0.00,,,0.00,241,WeatherCatV1.11B39,2013-04-11 16:32:00,
2013-04-11 12:36:00,44.4,21.6,29.55,North,9,8.0,9.0,40,0.00,,,0.00,243,WeatherCatV1.11B39,2013-04-11 16:36:00,
2013-04-11 12:37:00,44.4,21.6,29.55,North,9,4.0,9.0,40,0.00,,,0.00,243,WeatherCatV1.11B39,2013-04-11 16:37:00,
2013-04-11 12:42:00,44.3,20.9,29.55,WNW,298,6.0,7.0,39,0.00,,,0.00,241,WeatherCatV1.11B39,2013-04-11 16:42:00,
2013-04-11 12:47:00,44.4,19.8,29.55,North,355,3.0,6.0,37,0.00,,,0.00,207,WeatherCatV1.11B39,2013-04-11 16:47:00,
2013-04-11 12:52:00,44.6,19.3,29.56,West,271,4.0,10.0,36,0.00,,,0.00,214,WeatherCatV1.11B39,2013-04-11 16:52:00,
2013-04-11 12:56:00,44.8,20.1,29.56,North,0,6.0,14.0,37,0.00,,,0.00,214,WeatherCatV1.11B39,2013-04-11 16:56:00,
2013-04-11 13:02:00,44.9,20.2,29.56,North,5,6.0,6.0,37,0.00,,,0.00,181,WeatherCatV1.11B39,2013-04-11 17:02:00,
2013-04-11 13:06:00,45.0,20.9,29.56,North,0,4.0,7.0,38,0.00,,,0.00,306,WeatherCatV1.11B39,2013-04-11 17:06:00,
2013-04-11 13:11:00,44.9,19.6,29.57,North,0,6.0,9.0,36,0.00,,,0.00,216,WeatherCatV1.11B39,2013-04-11 17:11:00,
2013-04-11 13:16:00,44.7,19.4,29.57,North,5,5.0,11.0,36,0.00,,,0.00,292,WeatherCatV1.11B39,2013-04-11 17:16:00,
2013-04-11 13:21:00,44.5,19.9,29.57,North,0,4.0,7.0,37,0.00,,,0.00,264,WeatherCatV1.11B39,2013-04-11 17:21:00,
2013-04-11 13:26:00,44.4,21.0,29.57,North,355,10.0,11.0,39,0.00,,,0.00,230,WeatherCatV1.11B39,2013-04-11 17:26:00,
2013-04-11 13:31:00,44.1,18.9,29.57,ENE,59,1.0,10.0,36,0.00,,,0.00,204,WeatherCatV1.11B39,2013-04-11 17:31:00,
2013-04-11 13:36:00,44.1,20.7,29.56,North,0,3.0,12.0,39,0.00,,,0.00,188,WeatherCatV1.11B39,2013-04-11 17:36:00,
2013-04-11 13:41:00,44.1,19.5,29.57,NNW,347,10.0,13.0,37,0.00,,,0.00,197,WeatherCatV1.11B39,2013-04-11 17:41:00,
2013-04-11 13:46:00,44.1,20.1,29.56,NNE,13,13.0,13.0,38,0.00,,,0.00,172,WeatherCatV1.11B39,2013-04-11 17:46:00,
2013-04-11 13:51:00,44.0,20.7,29.57,NNE,14,6.0,10.0,39,0.00,,,0.00,179,WeatherCatV1.11B39,2013-04-11 17:51:00,
2013-04-11 13:56:00,43.7,19.8,29.56,North,0,5.0,10.0,38,0.00,,,0.00,149,WeatherCatV1.11B39,2013-04-11 17:56:00,
2013-04-11 14:01:00,43.4,18.9,29.56,North,5,7.0,7.0,37,0.00,,,0.00,125,WeatherCatV1.11B39,2013-04-11 18:01:00,
2013-04-11 14:02:00,43.4,18.2,29.56,North,355,2.0,7.0,36,0.00,,,0.00,125,WeatherCatV1.11B39,2013-04-11 18:02:00,
2013-04-11 14:06:00,43.4,19.5,29.56,North,350,7.0,10.0,38,0.00,,,0.00,134,WeatherCatV1.11B39,2013-04-11 18:06:00,
2013-04-11 14:11:00,43.4,20.1,29.56,North,351,1.0,9.0,39,0.00,,,0.00,142,WeatherCatV1.11B39,2013-04-11 18:11:00,
2013-04-11 14:12:00,43.5,19.6,29.56,North,11,2.0,2.0,38,0.00,,,0.00,142,WeatherCatV1.11B39,2013-04-11 18:12:00,
2013-04-11 14:17:00,43.5,20.8,29.57,North,11,4.0,8.0,40,0.00,,,0.00,120,WeatherCatV1.11B39,2013-04-11 18:17:00,
2013-04-11 14:22:00,43.3,19.4,29.57,North,0,12.0,15.0,38,0.00,,,0.00,116,WeatherCatV1.11B39,2013-04-11 18:22:00,
2013-04-11 14:27:00,43.0,19.1,29.57,North,0,6.0,12.0,38,0.00,,,0.01,172,WeatherCatV1.11B39,2013-04-11 18:27:00,
2013-04-11 14:32:00,43.1,17.3,29.57,NNE,13,6.0,11.0,35,0.00,,,0.01,188,WeatherCatV1.11B39,2013-04-11 18:32:00,
2013-04-11 14:37:00,43.1,19.2,29.57,North,5,6.0,10.0,38,0.00,,,0.01,207,WeatherCatV1.11B39,2013-04-11 18:37:00,
2013-04-11 14:42:00,43.1,21.0,29.57,NNW,346,5.0,10.0,41,0.00,,,0.01,237,WeatherCatV1.11B39,2013-04-11 18:42:00,
2013-04-11 14:47:00,43.0,18.5,29.56,North,5,7.0,11.0,37,0.00,,,0.01,185,WeatherCatV1.11B39,2013-04-11 18:47:00,
2013-04-11 14:52:00,43.1,19.2,29.56,NNE,12,6.0,9.0,38,0.00,,,0.01,176,WeatherCatV1.11B39,2013-04-11 18:52:00,
2013-04-11 14:57:00,43.2,18.7,29.56,NNE,19,9.0,10.0,37,0.00,,,0.01,165,WeatherCatV1.11B39,2013-04-11 18:57:00,
2013-04-11 15:02:00,43.1,19.2,29.56,North,0,1.0,9.0,38,0.00,,,0.01,172,WeatherCatV1.11B39,2013-04-11 19:02:00,
2013-04-11 15:07:00,43.1,20.4,29.56,North,351,0.0,10.0,40,0.00,,,0.01,183,WeatherCatV1.11B39,2013-04-11 19:07:00,
2013-04-11 15:11:00,43.3,17.5,29.56,North,350,9.0,10.0,35,0.00,,,0.01,183,WeatherCatV1.11B39,2013-04-11 19:11:00,
2013-04-11 15:16:00,43.4,18.2,29.56,North,349,6.0,10.0,36,0.00,,,0.01,156,WeatherCatV1.11B39,2013-04-11 19:16:00,
2013-04-11 15:21:00,43.3,18.8,29.56,North,5,4.0,10.0,37,0.00,,,0.01,179,WeatherCatV1.11B39,2013-04-11 19:21:00,
2013-04-11 15:26:00,43.1,19.8,29.56,NNW,348,4.0,7.0,39,0.00,,,0.01,199,WeatherCatV1.11B39,2013-04-11 19:26:00,
2013-04-11 15:31:00,42.9,19.7,29.55,NNW,346,7.0,10.0,39,0.00,,,0.01,162,WeatherCatV1.11B39,2013-04-11 19:31:00,
2013-04-11 15:36:00,42.7,18.3,29.53,North,355,6.0,8.0,37,0.00,,,0.01,181,WeatherCatV1.11B39,2013-04-11 19:36:00,
2013-04-11 15:41:00,42.9,19.1,29.54,North,11,5.0,6.0,38,0.00,,,0.01,248,WeatherCatV1.11B39,2013-04-11 19:41:00,
2013-04-11 15:46:00,43.1,20.4,29.54,North,0,8.0,10.0,40,0.00,,,0.01,167,WeatherCatV1.11B39,2013-04-11 19:46:00,
2013-04-11 15:51:00,43.0,20.3,29.54,North,0,15.0,15.0,40,0.00,,,0.01,185,WeatherCatV1.11B39,2013-04-11 19:51:00,
2013-04-11 15:56:00,42.6,20.6,29.54,North,5,7.0,12.0,41,0.00,,,0.01,109,WeatherCatV1.11B39,2013-04-11 19:56:00,
2013-04-11 16:01:00,42.2,19.0,29.54,North,11,9.0,13.0,39,0.00,,,0.01,95,WeatherCatV1.11B39,2013-04-11 20:01:00,
2013-04-11 16:06:00,42.0,21.1,29.54,North,9,11.0,15.0,43,0.00,,,0.01,93,WeatherCatV1.11B39,2013-04-11 20:06:00,
2013-04-11 16:11:00,41.6,20.8,29.54,North,349,11.0,16.0,43,0.00,,,0.01,77,WeatherCatV1.11B39,2013-04-11 20:11:00,
2013-04-11 16:16:00,41.3,21.0,29.54,North,355,10.0,13.0,44,0.00,,,0.01,60,WeatherCatV1.11B39,2013-04-11 20:16:00,
2013-04-11 16:21:00,41.3,19.4,29.55,North,5,6.0,12.0,41,0.00,,,0.01,62,WeatherCatV1.11B39,2013-04-11 20:21:00,
2013-04-11 16:26:00,41.4,20.6,29.56,NNE,14,10.0,13.0,43,0.00,,,0.01,79,WeatherCatV1.11B39,2013-04-11 20:26:00,
2013-04-11 16:31:00,41.5,18.4,29.57,NNW,348,4.0,14.0,39,0.00,,,0.01,83,WeatherCatV1.11B39,2013-04-11 20:31:00,
2013-04-11 16:36:00,41.7,20.9,29.57,North,0,12.0,12.0,43,0.00,,,0.01,63,WeatherCatV1.11B39,2013-04-11 20:36:00,
2013-04-11 16:41:00,41.8,17.5,29.57,North,0,9.0,11.0,37,0.00,,,0.01,69,WeatherCatV1.11B39,2013-04-11 20:41:00,
2013-04-11 16:46:00,41.7,18.6,29.58,North,9,8.0,12.0,39,0.00,,,0.01,44,WeatherCatV1.11B39,2013-04-11 20:46:00,
2013-04-11 16:51:00,41.5,20.7,29.58,North,355,10.0,10.0,43,0.00,,,0.01,47,WeatherCatV1.11B39,2013-04-11 20:51:00,
2013-04-11 16:56:00,41.3,21.6,29.58,North,0,5.0,7.0,45,0.00,,,0.01,60,WeatherCatV1.11B39,2013-04-11 20:56:00,
2013-04-11 17:01:00,41.2,20.4,29.59,NNW,345,0.0,5.0,43,0.00,,,0.01,62,WeatherCatV1.11B39,2013-04-11 21:01:00,
2013-04-11 17:06:00,41.2,21.0,29.59,North,355,8.0,9.0,44,0.00,,,0.01,67,WeatherCatV1.11B39,2013-04-11 21:06:00,
2013-04-11 17:11:00,41.2,18.1,29.59,North,9,2.0,11.0,39,0.00,,,0.01,51,WeatherCatV1.11B39,2013-04-11 21:11:00,
2013-04-11 17:16:00,41.3,18.2,29.59,North,0,2.0,5.0,39,0.00,,,0.01,40,WeatherCatV1.11B39,2013-04-11 21:16:00,
2013-04-11 17:21:00,41.4,20.6,29.59,North,0,4.0,5.0,43,0.00,,,0.01,49,WeatherCatV1.11B39,2013-04-11 21:21:00,
2013-04-11 17:26:00,41.4,20.6,29.60,North,11,3.0,6.0,43,0.00,,,0.01,42,WeatherCatV1.11B39,2013-04-11 21:26:00,
2013-04-11 17:31:00,41.3,20.5,29.60,North,355,4.0,6.0,43,0.00,,,0.01,37,WeatherCatV1.11B39,2013-04-11 21:31:00,
2013-04-11 17:36:00,41.3,18.8,29.60,North,355,0.0,4.0,40,0.00,,,0.01,47,WeatherCatV1.11B39,2013-04-11 21:36:00,
2013-04-11 17:41:00,41.3,17.6,29.61,NNW,348,0.0,5.0,38,0.00,,,0.01,46,WeatherCatV1.11B39,2013-04-11 21:41:00,
2013-04-11 17:46:00,41.5,19.6,29.61,North,355,0.0,5.0,41,0.00,,,0.01,42,WeatherCatV1.11B39,2013-04-11 21:46:00,
2013-04-11 17:51:00,41.7,19.2,29.61,North,355,2.0,4.0,40,0.00,,,0.01,49,WeatherCatV1.11B39,2013-04-11 21:51:00,
2013-04-11 17:56:00,41.7,20.9,29.61,North,0,1.0,3.0,43,0.00,,,0.01,69,WeatherCatV1.11B39,2013-04-11 21:56:00,
2013-04-11 18:01:00,41.6,20.8,29.60,North,355,4.0,6.0,43,0.00,,,0.01,37,WeatherCatV1.11B39,2013-04-11 22:01:00,
2013-04-11 18:06:00,41.3,21.6,29.61,North,0,2.0,4.0,45,0.00,,,0.01,32,WeatherCatV1.11B39,2013-04-11 22:06:00,
2013-04-11 18:11:00,41.1,19.8,29.61,North,355,2.0,5.0,42,0.00,,,0.01,65,WeatherCatV1.11B39,2013-04-11 22:11:00,
2013-04-11 18:16:00,41.1,19.8,29.61,NNW,348,4.0,7.0,42,0.00,,,0.01,47,WeatherCatV1.11B39,2013-04-11 22:16:00,
2013-04-11 18:21:00,41.1,20.3,29.61,North,355,5.0,7.0,43,0.00,,,0.01,37,WeatherCatV1.11B39,2013-04-11 22:21:00,
2013-04-11 18:26:00,41.1,21.4,29.61,North,0,3.0,5.0,45,0.00,,,0.01,16,WeatherCatV1.11B39,2013-04-11 22:26:00,
2013-04-11 18:31:00,41.1,19.2,29.61,North,5,4.0,6.0,41,0.00,,,0.01,21,WeatherCatV1.11B39,2013-04-11 22:31:00,
2013-04-11 18:36:00,41.1,19.2,29.61,North,355,6.0,8.0,41,0.00,,,0.01,19,WeatherCatV1.11B39,2013-04-11 22:36:00,
2013-04-11 18:41:00,41.0,18.5,29.61,North,11,6.0,13.0,40,0.00,,,0.01,16,WeatherCatV1.11B39,2013-04-11 22:41:00,
2013-04-11 18:46:00,40.9,20.1,29.61,North,355,7.0,10.0,43,0.00,,,0.01,11,WeatherCatV1.11B39,2013-04-11 22:46:00,
2013-04-11 18:51:00,40.7,20.5,29.61,North,355,9.0,11.0,44,0.00,,,0.01,9,WeatherCatV1.11B39,2013-04-11 22:51:00,
2013-04-11 18:56:00,40.4,19.1,29.62,North,355,4.0,6.0,42,0.00,,,0.01,7,WeatherCatV1.11B39,2013-04-11 22:56:00,
2013-04-11 19:01:00,40.3,17.9,29.63,North,0,1.0,7.0,40,0.00,,,0.01,5,WeatherCatV1.11B39,2013-04-11 23:01:00,
2013-04-11 19:06:00,40.2,20.0,29.63,North,5,4.0,6.0,44,0.00,,,0.01,5,WeatherCatV1.11B39,2013-04-11 23:06:00,
2013-04-11 19:11:00,40.1,20.5,29.63,North,355,0.0,4.0,45,0.00,,,0.01,0,WeatherCatV1.11B39,2013-04-11 23:11:00,
2013-04-11 19:16:00,40.0,19.3,29.63,North,355,3.0,9.0,43,0.00,,,0.01,0,WeatherCatV1.11B39,2013-04-11 23:16:00,
2013-04-11 19:21:00,39.9,19.8,29.63,NNW,344,5.0,6.0,44,0.00,,,0.01,0,WeatherCatV1.11B39,2013-04-11 23:21:00,
2013-04-11 19:26:00,39.9,17.6,29.63,North,0,3.0,5.0,40,0.00,,,0.01,0,WeatherCatV1.11B39,2013-04-11 23:26:00,
2013-04-11 19:31:00,39.9,19.2,29.63,North,355,3.0,4.0,43,0.00,,,0.01,0,WeatherCatV1.11B39,2013-04-11 23:31:00,
2013-04-11 19:36:00,39.8,20.7,29.63,North,355,1.0,2.0,46,0.00,,,0.01,0,WeatherCatV1.11B39,2013-04-11 23:36:00,
2013-04-11 19:41:00,39.6,19.0,29.64,North,355,6.0,7.0,43,0.00,,,0.01,0,WeatherCatV1.11B39,2013-04-11 23:41:00,
2013-04-11 19:46:00,39.4,18.2,29.64,North,355,9.0,9.0,42,0.00,,,0.01,0,WeatherCatV1.11B39,2013-04-11 23:46:00,
2013-04-11 19:51:00,39.3,19.8,29.65,North,355,1.0,7.0,45,0.00,,,0.01,0,WeatherCatV1.11B39,2013-04-11 23:51:00,
2013-04-11 19:54:00,39.3,18.7,29.64,North,355,5.0,5.0,43,0.00,,,0.01,0,WeatherCatV1.11B39,2013-04-11 23:54:00,
2013-04-11 19:56:00,39.3,19.2,29.65,North,355,2.0,4.0,44,0.00,,,0.01,0,WeatherCatV1.11B39,2013-04-11 23:56:00,
2013-04-11 20:01:00,39.2,21.2,29.64,NNE,14,2.0,3.0,48,0.00,,,0.01,0,WeatherCatV1.11B39,2013-04-12 00:01:00,
2013-04-11 20:06:00,38.9,20.4,29.65,North,5,3.0,7.0,47,0.00,,,0.01,0,WeatherCatV1.11B39,2013-04-12 00:06:00,
2013-04-11 20:11:00,38.8,19.3,29.65,North,350,0.0,4.0,45,0.00,,,0.01,0,WeatherCatV1.11B39,2013-04-12 00:11:00,
2013-04-11 20:16:00,38.7,20.7,29.66,North,9,2.0,2.0,48,0.00,,,0.01,0,WeatherCatV1.11B39,2013-04-12 00:16:00,
2013-04-11 20:21:00,38.6,20.1,29.65,North,5,2.0,5.0,47,0.00,,,0.01,0,WeatherCatV1.11B39,2013-04-12 00:21:00,
2013-04-11 20:26:00,38.5,19.5,29.65,North,0,5.0,5.0,46,0.00,,,0.01,0,WeatherCatV1.11B39,2013-04-12 00:26:00,
2013-04-11 20:31:00,38.5,21.5,29.65,North,5,3.0,6.0,50,0.00,,,0.01,0,WeatherCatV1.11B39,2013-04-12 00:31:00,
2013-04-11 20:36:00,38.4,19.4,29.66,North,0,0.0,4.0,46,0.00,,,0.01,0,WeatherCatV1.11B39,2013-04-12 00:36:00,
2013-04-11 20:41:00,38.3,20.8,29.65,North,0,2.0,3.0,49,0.00,,,0.01,0,WeatherCatV1.11B39,2013-04-12 00:41:00,
2013-04-11 20:46:00,38.2,19.8,29.65,North,5,3.0,6.0,47,0.00,,,0.01,0,WeatherCatV1.11B39,2013-04-12 00:46:00,
2013-04-11 20:51:00,38.2,20.3,29.66,North,355,3.0,5.0,48,0.00,,,0.01,0,WeatherCatV1.11B39,2013-04-12 00:51:00,
2013-04-11 20:56:00,38.1,21.1,29.65,North,350,2.0,7.0,50,0.00,,,0.01,0,WeatherCatV1.11B39,2013-04-12 00:56:00,
2013-04-11 21:01:00,38.0,20.6,29.65,North,5,3.0,5.0,49,0.00,,,0.01,0,WeatherCatV1.11B39,2013-04-12 01:01:00,
2013-04-11 21:06:00,38.0,21.5,29.66,North,5,3.0,5.0,51,0.00,,,0.01,0,WeatherCatV1.11B39,2013-04-12 01:06:00,
2013-04-11 21:07:00,38.0,21.5,29.66,North,5,2.0,6.0,51,0.00,,,0.01,0,WeatherCatV1.11B39,2013-04-12 01:07:00,
2013-04-11 21:11:00,37.9,20.9,29.67,North,0,4.0,5.0,50,0.00,,,0.01,0,WeatherCatV1.11B39,2013-04-12 01:11:00,
2013-04-11 21:16:00,37.9,21.4,29.67,North,5,4.0,5.0,51,0.00,,,0.01,0,WeatherCatV1.11B39,2013-04-12 01:16:00,
2013-04-11 21:21:00,37.8,20.4,29.67,NNE,13,3.0,5.0,49,0.00,,,0.01,0,WeatherCatV1.11B39,2013-04-12 01:21:00,
2013-04-11 21:26:00,37.8,20.8,29.67,North,355,3.0,4.0,50,0.00,,,0.01,0,WeatherCatV1.11B39,2013-04-12 01:26:00,
2013-04-11 21:31:00,37.8,20.4,29.68,North,355,2.0,4.0,49,0.00,,,0.01,0,WeatherCatV1.11B39,2013-04-12 01:31:00,
2013-04-11 21:36:00,37.8,20.4,29.68,North,355,2.0,6.0,49,0.00,,,0.01,0,WeatherCatV1.11B39,2013-04-12 01:36:00,
2013-04-11 21:41:00,37.7,20.8,29.68,North,355,3.0,4.0,50,0.00,,,0.01,0,WeatherCatV1.11B39,2013-04-12 01:41:00,
2013-04-11 21:46:00,37.7,18.3,29.68,North,355,3.0,4.0,45,0.00,,,0.01,0,WeatherCatV1.11B39,2013-04-12 01:46:00,
2013-04-11 21:47:00,37.7,21.7,29.68,North,355,1.0,4.0,52,0.00,,,0.01,0,WeatherCatV1.11B39,2013-04-12 01:47:00,
2013-04-11 21:52:00,37.7,19.8,29.68,North,355,0.0,3.0,48,0.00,,,0.01,0,WeatherCatV1.11B39,2013-04-12 01:52:00,
2013-04-11 21:56:00,37.7,21.2,29.68,NNE,20,5.0,5.0,51,0.00,,,0.01,0,WeatherCatV1.11B39,2013-04-12 01:56:00,
2013-04-11 22:01:00,37.5,19.1,29.68,North,355,3.0,5.0,47,0.00,,,0.01,0,WeatherCatV1.11B39,2013-04-12 02:01:00,
2013-04-11 22:02:00,37.5,18.6,29.68,North,355,2.0,5.0,46,0.00,,,0.01,0,WeatherCatV1.11B39,2013-04-12 02:02:00,
2013-04-11 22:06:00,37.5,20.1,29.68,North,355,0.0,2.0,49,0.00,,,0.01,0,WeatherCatV1.11B39,2013-04-12 02:06:00,
2013-04-11 22:11:00,37.5,21.9,29.68,North,355,0.0,2.0,53,0.00,,,0.01,0,WeatherCatV1.11B39,2013-04-12 02:11:00,
2013-04-11 22:16:00,37.4,22.3,29.68,North,355,0.0,2.0,54,0.00,,,0.01,0,WeatherCatV1.11B39,2013-04-12 02:16:00,
2013-04-11 22:21:00,37.3,23.5,29.68,North,355,1.0,1.0,57,0.00,,,0.01,0,WeatherCatV1.11B39,2013-04-12 02:21:00,
2013-04-11 22:22:00,37.3,23.5,29.68,North,355,0.0,1.0,57,0.00,,,0.01,0,WeatherCatV1.11B39,2013-04-12 02:22:00,
2013-04-11 22:26:00,37.1,23.3,29.68,North,355,0.0,1.0,57,0.00,,,0.01,0,WeatherCatV1.11B39,2013-04-12 02:26:00,
2013-04-11 22:32:00,37.0,24.0,29.68,North,355,0.0,0.0,59,0.00,,,0.01,0,WeatherCatV1.11B39,2013-04-12 02:32:00,
2013-04-11 22:37:00,36.8,23.0,29.68,North,355,0.0,0.0,57,0.00,,,0.01,0,WeatherCatV1.11B39,2013-04-12 02:37:00,
2013-04-11 22:42:00,36.7,23.7,29.68,North,355,0.0,0.0,59,0.00,,,0.01,0,WeatherCatV1.11B39,2013-04-12 02:42:00,
2013-04-11 22:46:00,36.6,23.2,29.68,North,355,0.0,0.0,58,0.00,,,0.01,0,WeatherCatV1.11B39,2013-04-12 02:46:00,
2013-04-11 22:51:00,36.4,22.6,29.68,North,355,0.0,0.0,57,0.00,,,0.01,0,WeatherCatV1.11B39,2013-04-12 02:51:00,
2013-04-11 22:56:00,36.3,23.4,29.68,North,355,0.0,0.0,59,0.00,,,0.01,0,WeatherCatV1.11B39,2013-04-12 02:56:00,
2013-04-11 23:01:00,36.1,24.0,29.68,North,355,0.0,0.0,61,0.00,,,0.01,0,WeatherCatV1.11B39,2013-04-12 03:01:00,
2013-04-11 23:06:00,35.8,22.1,29.69,North,355,0.0,1.0,57,0.00,,,0.01,0,WeatherCatV1.11B39,2013-04-12 03:06:00,
2013-04-11 23:11:00,35.6,22.7,29.69,North,355,0.0,0.0,59,0.00,,,0.01,0,WeatherCatV1.11B39,2013-04-12 03:11:00,
2013-04-11 23:16:00,35.3,22.8,29.69,North,355,0.0,0.0,60,0.00,,,0.01,0,WeatherCatV1.11B39,2013-04-12 03:16:00,
2013-04-11 23:17:00,35.3,22.8,29.69,North,355,0.0,0.0,60,0.00,,,0.01,0,WeatherCatV1.11B39,2013-04-12 03:17:00,
2013-04-11 23:22:00,35.0,22.5,29.69,North,355,0.0,0.0,60,0.00,,,0.01,0,WeatherCatV1.11B39,2013-04-12 03:22:00,
2013-04-11 23:26:00,34.7,21.9,29.69,North,355,0.0,0.0,59,0.00,,,0.01,0,WeatherCatV1.11B39,2013-04-12 03:26:00,
2013-04-11 23:31:00,34.4,21.6,29.69,North,355,0.0,0.0,59,0.00,,,0.01,0,WeatherCatV1.11B39,2013-04-12 03:31:00,
2013-04-11 23:36:00,34.4,22.7,29.69,North,355,0.0,0.0,62,0.00,,,0.01,0,WeatherCatV1.11B39,2013-04-12 03:36:00,
2013-04-11 23:41:00,34.2,21.8,29.70,North,355,0.0,0.0,60,0.00,,,0.01,0,WeatherCatV1.11B39,2013-04-12 03:41:00,
2013-04-11 23:46:00,34.0,22.4,29.70,North,355,0.0,0.0,62,0.00,,,0.01,0,WeatherCatV1.11B39,2013-04-12 03:46:00,
2013-04-11 23:51:00,33.8,22.9,29.71,North,355,0.0,0.0,64,0.00,,,0.01,0,WeatherCatV1.11B39,2013-04-12 03:51:00,
2013-04-11 23:56:00,33.7,23.2,29.71,North,355,0.0,0.0,65,0.00,,,0.01,0,WeatherCatV1.11B39,2013-04-12 03:56:00,